Kalaleh Airport


Codes: OINE/KLM
Name: Kalaleh Airport
City: Kalaleh
Country: Iran
Elevation: 425 ft.

Photos at Kalaleh Airport


   Photos courtesy of SpottingLog. You can add your own sightings and photos by signing up for a free trial today.



No photos found.

Weather at Kalaleh Airport


Time (UTC)DescriptionTempratureWindCloud coverageVisibilityPressureHumidity
18-Apr-2024 00:00Clear Sky15°C4 mph, E2%10000m1013hPa78%
18-Apr-2024 03:00Clear Sky17°C4 mph, E4%10000m1014hPa66%
18-Apr-2024 06:00Clear Sky25°C4 mph, NW4%10000m1013hPa40%
18-Apr-2024 09:00Clear Sky27°C4 mph, NW3%10000m1011hPa35%
18-Apr-2024 12:00Clear Sky28°C2 mph, NW3%10000m1009hPa25%
18-Apr-2024 15:00Clear Sky22°C4 mph, SE2%10000m1009hPa35%
18-Apr-2024 18:00Scattered Clouds20°C7 mph, SE26%10000m1009hPa35%
18-Apr-2024 21:00Scattered Clouds19°C7 mph, E25%10000m1008hPa34%
19-Apr-2024 00:00Few Clouds19°C7 mph, E15%10000m1007hPa36%
19-Apr-2024 03:00Scattered Clouds20°C7 mph, E43%10000m1007hPa43%
19-Apr-2024 06:00Scattered Clouds28°C4 mph, NW33%10000m1007hPa27%
19-Apr-2024 09:00Clear Sky30°C7 mph, SW4%10000m1006hPa21%
19-Apr-2024 12:00Clear Sky30°C7 mph, W3%10000m1006hPa21%
19-Apr-2024 15:00Clear Sky22°C4 mph, S1%10000m1007hPa34%
19-Apr-2024 18:00Clear Sky19°C2 mph, S0%10000m1009hPa45%
19-Apr-2024 21:00Clear Sky18°C4 mph, E0%10000m1009hPa44%
20-Apr-2024 00:00Clear Sky17°C2 mph, SE0%10000m1009hPa41%
20-Apr-2024 03:00Clear Sky20°C2 mph, SE0%10000m1011hPa45%
20-Apr-2024 06:00Clear Sky24°C7 mph, W1%10000m1012hPa40%
20-Apr-2024 09:00Clear Sky27°C7 mph, SW5%10000m1012hPa26%
20-Apr-2024 12:00Clear Sky28°C11 mph, W3%10000m1011hPa24%
20-Apr-2024 15:00Clear Sky20°C4 mph, SW1%10000m1012hPa42%
20-Apr-2024 18:00Clear Sky17°C4 mph, E1%10000m1013hPa47%
20-Apr-2024 21:00Clear Sky18°C4 mph, E4%10000m1011hPa40%
21-Apr-2024 00:00Clear Sky18°C7 mph, E3%10000m1009hPa32%
21-Apr-2024 03:00Clear Sky20°C2 mph, E0%10000m1010hPa39%
21-Apr-2024 06:00Clear Sky26°C4 mph, NW1%10000m1009hPa28%
21-Apr-2024 09:00Few Clouds29°C4 mph, NW12%10000m1008hPa24%
21-Apr-2024 12:00Few Clouds30°C4 mph, NW19%10000m1008hPa23%
21-Apr-2024 15:00Broken Clouds24°C4 mph, S74%10000m1009hPa33%
21-Apr-2024 18:00Scattered Clouds20°C2 mph, SE43%10000m1010hPa45%
21-Apr-2024 21:00Clear Sky19°C2 mph, E4%10000m1009hPa42%
22-Apr-2024 00:00Clear Sky19°C4 mph, E3%10000m1010hPa42%
22-Apr-2024 03:00Clear Sky22°C2 mph, E8%10000m1010hPa42%
22-Apr-2024 06:00Few Clouds27°C4 mph, NW18%10000m1011hPa33%
22-Apr-2024 09:00Broken Clouds30°C7 mph, W63%10000m1011hPa27%
22-Apr-2024 12:00Broken Clouds30°C9 mph, W61%10000m1011hPa24%
22-Apr-2024 15:00Overcast Clouds20°C9 mph, SW86%10000m1014hPa52%
22-Apr-2024 18:00Overcast Clouds18°C4 mph, SW92%10000m1015hPa57%
22-Apr-2024 21:00Overcast Clouds16°C2 mph, S100%10000m1015hPa64%